sensor_id;sensor_type;location;lat;lon;timestamp;P1;durP1;ratioP1;P2;durP2;ratioP2
42098;SDS011;27758;55.900;8.516;2023-01-10T00:00:22;7.03;;;1.05;;
42098;SDS011;27758;55.900;8.516;2023-01-10T00:02:50;8.95;;;1.00;;
42098;SDS011;27758;55.900;8.516;2023-01-10T00:05:16;5.78;;;0.90;;
42098;SDS011;27758;55.900;8.516;2023-01-10T00:07:42;3.25;;;0.80;;
42098;SDS011;27758;55.900;8.516;2023-01-10T00:10:08;10.02;;;1.58;;
42098;SDS011;27758;55.900;8.516;2023-01-10T00:12:35;5.60;;;1.05;;
42098;SDS011;27758;55.900;8.516;2023-01-10T00:15:19;6.35;;;1.50;;
42098;SDS011;27758;55.900;8.516;2023-01-10T00:17:45;6.95;;;1.20;;
42098;SDS011;27758;55.900;8.516;2023-01-10T00:20:11;6.07;;;1.33;;
42098;SDS011;27758;55.900;8.516;2023-01-10T00:22:37;5.35;;;1.10;;
42098;SDS011;27758;55.900;8.516;2023-01-10T00:25:03;7.95;;;2.22;;
42098;SDS011;27758;55.900;8.516;2023-01-10T00:27:29;6.28;;;1.10;;
42098;SDS011;27758;55.900;8.516;2023-01-10T00:29:55;9.07;;;1.42;;
42098;SDS011;27758;55.900;8.516;2023-01-10T00:32:23;8.90;;;1.15;;
42098;SDS011;27758;55.900;8.516;2023-01-10T00:34:48;10.93;;;1.73;;
42098;SDS011;27758;55.900;8.516;2023-01-10T00:37:14;5.45;;;0.93;;
42098;SDS011;27758;55.900;8.516;2023-01-10T00:39:40;8.27;;;0.90;;
42098;SDS011;27758;55.900;8.516;2023-01-10T00:42:06;6.38;;;1.45;;
42098;SDS011;27758;55.900;8.516;2023-01-10T00:44:51;3.95;;;1.08;;
42098;SDS011;27758;55.900;8.516;2023-01-10T00:47:17;7.75;;;1.70;;
42098;SDS011;27758;55.900;8.516;2023-01-10T00:49:43;7.10;;;1.40;;
42098;SDS011;27758;55.900;8.516;2023-01-10T00:52:08;9.38;;;1.33;;
42098;SDS011;27758;55.900;8.516;2023-01-10T00:54:34;14.07;;;2.17;;
42098;SDS011;27758;55.900;8.516;2023-01-10T00:57:00;7.78;;;1.20;;
42098;SDS011;27758;55.900;8.516;2023-01-10T00:59:25;3.80;;;0.93;;
42098;SDS011;27758;55.900;8.516;2023-01-10T01:01:53;5.60;;;1.33;;
42098;SDS011;27758;55.900;8.516;2023-01-10T01:04:19;8.45;;;1.33;;
42098;SDS011;27758;55.900;8.516;2023-01-10T01:06:45;9.18;;;1.20;;
42098;SDS011;27758;55.900;8.516;2023-01-10T01:09:13;7.70;;;1.70;;
42098;SDS011;27758;55.900;8.516;2023-01-10T01:11:39;6.75;;;1.67;;
42098;SDS011;27758;55.900;8.516;2023-01-10T01:14:05;9.98;;;1.67;;
42098;SDS011;27758;55.900;8.516;2023-01-10T01:16:31;11.15;;;1.60;;
42098;SDS011;27758;55.900;8.516;2023-01-10T01:18:57;9.68;;;1.13;;
42098;SDS011;27758;55.900;8.516;2023-01-10T01:21:22;5.72;;;1.50;;
42098;SDS011;27758;55.900;8.516;2023-01-10T01:23:55;6.53;;;1.85;;
42098;SDS011;27758;55.900;8.516;2023-01-10T01:26:21;8.85;;;1.83;;
42098;SDS011;27758;55.900;8.516;2023-01-10T01:28:48;7.93;;;1.67;;
42098;SDS011;27758;55.900;8.516;2023-01-10T01:31:14;16.35;;;2.00;;
42098;SDS011;27758;55.900;8.516;2023-01-10T01:33:40;10.13;;;2.22;;
42098;SDS011;27758;55.900;8.516;2023-01-10T01:36:09;11.57;;;1.95;;
42098;SDS011;27758;55.900;8.516;2023-01-10T01:38:36;9.23;;;2.15;;
42098;SDS011;27758;55.900;8.516;2023-01-10T01:41:02;11.60;;;2.17;;
42098;SDS011;27758;55.900;8.516;2023-01-10T01:43:28;10.63;;;1.83;;
42098;SDS011;27758;55.900;8.516;2023-01-10T01:45:59;11.57;;;1.42;;
42098;SDS011;27758;55.900;8.516;2023-01-10T01:48:32;16.25;;;2.10;;
42098;SDS011;27758;55.900;8.516;2023-01-10T01:51:03;12.98;;;1.80;;
42098;SDS011;27758;55.900;8.516;2023-01-10T01:53:48;11.43;;;2.90;;
42098;SDS011;27758;55.900;8.516;2023-01-10T01:58:58;11.95;;;1.70;;
42098;SDS011;27758;55.900;8.516;2023-01-10T02:01:31;19.05;;;2.30;;
42098;SDS011;27758;55.900;8.516;2023-01-10T02:04:21;15.50;;;2.85;;
42098;SDS011;27758;55.900;8.516;2023-01-10T02:06:51;11.88;;;1.83;;
42098;SDS011;27758;55.900;8.516;2023-01-10T02:09:21;18.90;;;3.17;;
42098;SDS011;27758;55.900;8.516;2023-01-10T02:11:48;10.07;;;1.88;;
42098;SDS011;27758;55.900;8.516;2023-01-10T02:14:14;18.13;;;2.17;;
42098;SDS011;27758;55.900;8.516;2023-01-10T02:16:41;11.25;;;1.77;;
42098;SDS011;27758;55.900;8.516;2023-01-10T02:19:09;11.15;;;2.65;;
42098;SDS011;27758;55.900;8.516;2023-01-10T02:24:37;19.95;;;2.83;;
42098;SDS011;27758;55.900;8.516;2023-01-10T02:43:56;19.20;;;2.72;;
42098;SDS011;27758;55.900;8.516;2023-01-10T02:46:28;23.30;;;3.78;;
42098;SDS011;27758;55.900;8.516;2023-01-10T02:48:56;18.20;;;3.08;;
42098;SDS011;27758;55.900;8.516;2023-01-10T02:51:26;24.17;;;4.55;;
42098;SDS011;27758;55.900;8.516;2023-01-10T03:01:58;31.17;;;4.50;;
42098;SDS011;27758;55.900;8.516;2023-01-10T03:10:20;31.40;;;5.07;;
42098;SDS011;27758;55.900;8.516;2023-01-10T03:15:26;32.03;;;4.20;;
42098;SDS011;27758;55.900;8.516;2023-01-10T03:17:58;29.38;;;4.75;;
42098;SDS011;27758;55.900;8.516;2023-01-10T03:20:26;31.95;;;4.68;;
42098;SDS011;27758;55.900;8.516;2023-01-10T03:25:23;19.20;;;3.20;;
42098;SDS011;27758;55.900;8.516;2023-01-10T03:33:14;30.95;;;4.45;;
42098;SDS011;27758;55.900;8.516;2023-01-10T03:38:10;34.08;;;4.30;;
42098;SDS011;27758;55.900;8.516;2023-01-10T03:43:27;36.33;;;5.63;;
42098;SDS011;27758;55.900;8.516;2023-01-10T03:46:24;36.28;;;4.80;;
42098;SDS011;27758;55.900;8.516;2023-01-10T03:48:56;19.13;;;3.45;;
42098;SDS011;27758;55.900;8.516;2023-01-10T03:51:24;29.73;;;5.10;;
42098;SDS011;27758;55.900;8.516;2023-01-10T03:53:51;23.48;;;3.65;;
42098;SDS011;27758;55.900;8.516;2023-01-10T03:56:17;28.58;;;4.18;;
42098;SDS011;27758;55.900;8.516;2023-01-10T03:58:43;25.05;;;4.00;;
42098;SDS011;27758;55.900;8.516;2023-01-10T04:01:08;15.38;;;3.95;;
42098;SDS011;27758;55.900;8.516;2023-01-10T04:03:34;32.65;;;4.43;;
42098;SDS011;27758;55.900;8.516;2023-01-10T04:06:00;21.95;;;3.40;;
42098;SDS011;27758;55.900;8.516;2023-01-10T04:08:27;28.17;;;3.53;;
42098;SDS011;27758;55.900;8.516;2023-01-10T04:10:52;22.10;;;2.88;;
42098;SDS011;27758;55.900;8.516;2023-01-10T04:13:18;25.08;;;4.80;;
42098;SDS011;27758;55.900;8.516;2023-01-10T04:15:44;22.17;;;3.17;;
42098;SDS011;27758;55.900;8.516;2023-01-10T04:18:09;33.05;;;5.03;;
42098;SDS011;27758;55.900;8.516;2023-01-10T04:20:37;18.30;;;3.25;;
42098;SDS011;27758;55.900;8.516;2023-01-10T04:23:02;23.15;;;3.25;;
42098;SDS011;27758;55.900;8.516;2023-01-10T04:25:28;18.60;;;2.88;;
42098;SDS011;27758;55.900;8.516;2023-01-10T04:27:54;15.15;;;2.60;;
42098;SDS011;27758;55.900;8.516;2023-01-10T04:30:19;23.52;;;4.07;;
42098;SDS011;27758;55.900;8.516;2023-01-10T04:32:46;16.60;;;2.67;;
42098;SDS011;27758;55.900;8.516;2023-01-10T04:35:11;13.73;;;2.95;;
42098;SDS011;27758;55.900;8.516;2023-01-10T04:37:37;17.50;;;3.15;;
42098;SDS011;27758;55.900;8.516;2023-01-10T04:40:03;22.20;;;2.45;;
42098;SDS011;27758;55.900;8.516;2023-01-10T04:42:29;17.90;;;2.92;;
42098;SDS011;27758;55.900;8.516;2023-01-10T04:44:55;11.48;;;2.63;;
42098;SDS011;27758;55.900;8.516;2023-01-10T04:47:21;20.33;;;3.80;;
42098;SDS011;27758;55.900;8.516;2023-01-10T04:49:46;17.05;;;2.70;;
42098;SDS011;27758;55.900;8.516;2023-01-10T04:52:12;18.60;;;3.45;;
42098;SDS011;27758;55.900;8.516;2023-01-10T04:54:38;20.98;;;3.47;;
42098;SDS011;27758;55.900;8.516;2023-01-10T04:57:03;22.77;;;2.42;;
42098;SDS011;27758;55.900;8.516;2023-01-10T04:59:30;13.57;;;3.45;;
42098;SDS011;27758;55.900;8.516;2023-01-10T05:01:56;19.58;;;3.03;;
42098;SDS011;27758;55.900;8.516;2023-01-10T05:04:22;20.98;;;3.17;;
42098;SDS011;27758;55.900;8.516;2023-01-10T05:06:48;24.15;;;3.60;;
42098;SDS011;27758;55.900;8.516;2023-01-10T05:09:14;15.30;;;2.85;;
42098;SDS011;27758;55.900;8.516;2023-01-10T05:11:40;17.38;;;2.97;;
42098;SDS011;27758;55.900;8.516;2023-01-10T05:14:06;22.20;;;3.63;;
42098;SDS011;27758;55.900;8.516;2023-01-10T05:16:31;17.98;;;3.63;;
42098;SDS011;27758;55.900;8.516;2023-01-10T05:18:57;19.63;;;3.47;;
42098;SDS011;27758;55.900;8.516;2023-01-10T05:21:23;21.40;;;3.60;;
42098;SDS011;27758;55.900;8.516;2023-01-10T05:23:49;18.65;;;2.97;;
42098;SDS011;27758;55.900;8.516;2023-01-10T05:26:16;22.40;;;3.40;;
42098;SDS011;27758;55.900;8.516;2023-01-10T05:28:43;15.23;;;3.88;;
42098;SDS011;27758;55.900;8.516;2023-01-10T05:31:14;18.00;;;3.05;;
42098;SDS011;27758;55.900;8.516;2023-01-10T05:33:44;25.88;;;4.53;;
42098;SDS011;27758;55.900;8.516;2023-01-10T05:36:11;22.73;;;3.45;;
42098;SDS011;27758;55.900;8.516;2023-01-10T05:38:37;18.27;;;3.75;;
42098;SDS011;27758;55.900;8.516;2023-01-10T05:41:03;18.65;;;4.10;;
42098;SDS011;27758;55.900;8.516;2023-01-10T05:43:29;16.90;;;3.55;;
42098;SDS011;27758;55.900;8.516;2023-01-10T05:45:55;21.23;;;3.33;;
42098;SDS011;27758;55.900;8.516;2023-01-10T05:48:21;18.67;;;3.00;;
42098;SDS011;27758;55.900;8.516;2023-01-10T05:50:48;22.80;;;4.50;;
42098;SDS011;27758;55.900;8.516;2023-01-10T05:53:14;25.83;;;3.88;;
42098;SDS011;27758;55.900;8.516;2023-01-10T05:55:40;20.98;;;3.78;;
42098;SDS011;27758;55.900;8.516;2023-01-10T05:58:06;14.95;;;3.30;;
42098;SDS011;27758;55.900;8.516;2023-01-10T06:00:32;25.25;;;4.30;;
42098;SDS011;27758;55.900;8.516;2023-01-10T06:02:58;25.52;;;4.47;;
42098;SDS011;27758;55.900;8.516;2023-01-10T06:05:23;31.77;;;4.45;;
42098;SDS011;27758;55.900;8.516;2023-01-10T06:07:51;26.75;;;4.82;;
42098;SDS011;27758;55.900;8.516;2023-01-10T06:10:17;25.00;;;3.75;;
42098;SDS011;27758;55.900;8.516;2023-01-10T06:12:43;21.00;;;3.83;;
42098;SDS011;27758;55.900;8.516;2023-01-10T06:15:09;29.08;;;4.03;;
42098;SDS011;27758;55.900;8.516;2023-01-10T06:17:35;27.85;;;3.42;;
42098;SDS011;27758;55.900;8.516;2023-01-10T06:20:01;25.67;;;4.72;;
42098;SDS011;27758;55.900;8.516;2023-01-10T06:22:27;28.77;;;4.15;;
42098;SDS011;27758;55.900;8.516;2023-01-10T06:24:52;21.50;;;3.80;;
42098;SDS011;27758;55.900;8.516;2023-01-10T06:27:19;24.90;;;3.90;;
42098;SDS011;27758;55.900;8.516;2023-01-10T06:29:45;23.60;;;4.20;;
42098;SDS011;27758;55.900;8.516;2023-01-10T06:32:11;27.80;;;5.60;;
42098;SDS011;27758;55.900;8.516;2023-01-10T06:34:37;16.75;;;3.85;;
42098;SDS011;27758;55.900;8.516;2023-01-10T06:37:03;41.08;;;4.70;;
42098;SDS011;27758;55.900;8.516;2023-01-10T06:39:28;14.45;;;3.50;;
42098;SDS011;27758;55.900;8.516;2023-01-10T06:41:54;29.35;;;4.15;;
42098;SDS011;27758;55.900;8.516;2023-01-10T06:44:20;22.40;;;3.85;;
42098;SDS011;27758;55.900;8.516;2023-01-10T06:46:46;18.10;;;3.42;;
42098;SDS011;27758;55.900;8.516;2023-01-10T06:49:11;19.63;;;3.92;;
42098;SDS011;27758;55.900;8.516;2023-01-10T06:51:37;25.88;;;3.35;;
42098;SDS011;27758;55.900;8.516;2023-01-10T06:54:03;26.40;;;4.35;;
42098;SDS011;27758;55.900;8.516;2023-01-10T06:56:28;22.45;;;4.47;;
42098;SDS011;27758;55.900;8.516;2023-01-10T06:58:54;20.00;;;3.90;;
42098;SDS011;27758;55.900;8.516;2023-01-10T07:01:20;25.52;;;3.92;;
42098;SDS011;27758;55.900;8.516;2023-01-10T07:03:46;22.67;;;3.75;;
42098;SDS011;27758;55.900;8.516;2023-01-10T07:06:12;25.05;;;4.00;;
42098;SDS011;27758;55.900;8.516;2023-01-10T07:08:39;19.52;;;3.38;;
42098;SDS011;27758;55.900;8.516;2023-01-10T07:11:07;20.13;;;5.07;;
42098;SDS011;27758;55.900;8.516;2023-01-10T07:13:33;28.35;;;4.25;;
42098;SDS011;27758;55.900;8.516;2023-01-10T07:16:03;29.33;;;4.95;;
42098;SDS011;27758;55.900;8.516;2023-01-10T07:18:29;29.65;;;5.22;;
42098;SDS011;27758;55.900;8.516;2023-01-10T07:20:56;29.52;;;5.18;;
42098;SDS011;27758;55.900;8.516;2023-01-10T07:23:22;26.50;;;4.78;;
42098;SDS011;27758;55.900;8.516;2023-01-10T07:25:48;28.02;;;5.20;;
42098;SDS011;27758;55.900;8.516;2023-01-10T07:28:13;23.23;;;4.70;;
42098;SDS011;27758;55.900;8.516;2023-01-10T07:30:39;25.02;;;5.20;;
42098;SDS011;27758;55.900;8.516;2023-01-10T07:33:05;25.73;;;4.85;;
42098;SDS011;27758;55.900;8.516;2023-01-10T07:35:31;24.25;;;4.47;;
42098;SDS011;27758;55.900;8.516;2023-01-10T07:37:57;23.73;;;4.93;;
42098;SDS011;27758;55.900;8.516;2023-01-10T07:40:24;24.30;;;5.03;;
42098;SDS011;27758;55.900;8.516;2023-01-10T07:42:59;21.67;;;4.40;;
42098;SDS011;27758;55.900;8.516;2023-01-10T07:45:27;27.13;;;4.57;;
42098;SDS011;27758;55.900;8.516;2023-01-10T07:47:57;21.10;;;3.75;;
42098;SDS011;27758;55.900;8.516;2023-01-10T07:50:23;28.45;;;4.45;;
42098;SDS011;27758;55.900;8.516;2023-01-10T07:52:50;24.27;;;4.15;;
42098;SDS011;27758;55.900;8.516;2023-01-10T07:55:15;36.40;;;4.85;;
42098;SDS011;27758;55.900;8.516;2023-01-10T07:57:42;41.17;;;6.15;;
42098;SDS011;27758;55.900;8.516;2023-01-10T08:00:08;28.08;;;4.88;;
42098;SDS011;27758;55.900;8.516;2023-01-10T08:02:34;28.48;;;4.90;;
42098;SDS011;27758;55.900;8.516;2023-01-10T08:05:00;34.55;;;5.38;;
42098;SDS011;27758;55.900;8.516;2023-01-10T08:07:29;35.60;;;4.63;;
42098;SDS011;27758;55.900;8.516;2023-01-10T08:09:55;30.27;;;4.25;;
42098;SDS011;27758;55.900;8.516;2023-01-10T08:12:21;26.65;;;4.05;;
42098;SDS011;27758;55.900;8.516;2023-01-10T08:14:48;36.38;;;6.30;;
42098;SDS011;27758;55.900;8.516;2023-01-10T08:17:17;25.77;;;4.87;;
42098;SDS011;27758;55.900;8.516;2023-01-10T08:19:44;28.00;;;4.88;;
42098;SDS011;27758;55.900;8.516;2023-01-10T08:22:10;22.27;;;4.40;;
42098;SDS011;27758;55.900;8.516;2023-01-10T08:24:35;18.63;;;4.10;;
42098;SDS011;27758;55.900;8.516;2023-01-10T08:27:01;29.98;;;5.03;;
42098;SDS011;27758;55.900;8.516;2023-01-10T08:29:28;19.33;;;3.75;;
42098;SDS011;27758;55.900;8.516;2023-01-10T08:31:54;27.70;;;5.22;;
42098;SDS011;27758;55.900;8.516;2023-01-10T08:34:20;25.30;;;4.38;;
42098;SDS011;27758;55.900;8.516;2023-01-10T08:36:49;19.83;;;3.78;;
42098;SDS011;27758;55.900;8.516;2023-01-10T08:39:16;18.02;;;3.70;;
42098;SDS011;27758;55.900;8.516;2023-01-10T08:41:41;20.15;;;4.22;;
42098;SDS011;27758;55.900;8.516;2023-01-10T08:44:08;24.83;;;4.18;;
42098;SDS011;27758;55.900;8.516;2023-01-10T08:46:36;29.77;;;4.55;;
42098;SDS011;27758;55.900;8.516;2023-01-10T08:49:02;21.38;;;4.15;;
42098;SDS011;27758;55.900;8.516;2023-01-10T08:51:28;20.35;;;3.65;;
42098;SDS011;27758;55.900;8.516;2023-01-10T08:53:53;22.88;;;3.42;;
42098;SDS011;27758;55.900;8.516;2023-01-10T08:56:19;25.23;;;3.15;;
42098;SDS011;27758;55.900;8.516;2023-01-10T08:58:45;16.33;;;3.42;;
42098;SDS011;27758;55.900;8.516;2023-01-10T09:01:11;12.80;;;2.95;;
42098;SDS011;27758;55.900;8.516;2023-01-10T09:03:38;20.90;;;3.75;;
42098;SDS011;27758;55.900;8.516;2023-01-10T09:06:04;15.82;;;2.42;;
42098;SDS011;27758;55.900;8.516;2023-01-10T09:08:30;20.67;;;4.20;;
42098;SDS011;27758;55.900;8.516;2023-01-10T09:10:59;25.40;;;2.88;;
42098;SDS011;27758;55.900;8.516;2023-01-10T09:13:26;18.88;;;4.03;;
42098;SDS011;27758;55.900;8.516;2023-01-10T09:15:53;20.08;;;3.80;;
42098;SDS011;27758;55.900;8.516;2023-01-10T09:18:19;17.20;;;3.78;;
42098;SDS011;27758;55.900;8.516;2023-01-10T09:20:45;14.73;;;3.30;;
42098;SDS011;27758;55.900;8.516;2023-01-10T09:23:12;10.32;;;2.65;;
42098;SDS011;27758;55.900;8.516;2023-01-10T09:25:43;16.73;;;2.75;;
42098;SDS011;27758;55.900;8.516;2023-01-10T09:28:10;11.07;;;2.90;;
42098;SDS011;27758;55.900;8.516;2023-01-10T09:30:36;15.43;;;2.72;;
42098;SDS011;27758;55.900;8.516;2023-01-10T09:33:03;14.20;;;2.45;;
42098;SDS011;27758;55.900;8.516;2023-01-10T09:35:29;11.15;;;1.88;;
42098;SDS011;27758;55.900;8.516;2023-01-10T09:37:56;10.55;;;2.83;;
42098;SDS011;27758;55.900;8.516;2023-01-10T09:40:35;17.13;;;2.65;;
42098;SDS011;27758;55.900;8.516;2023-01-10T09:52:19;12.10;;;2.10;;
42098;SDS011;27758;55.900;8.516;2023-01-10T09:54:50;8.15;;;2.08;;
42098;SDS011;27758;55.900;8.516;2023-01-10T09:57:19;15.52;;;2.78;;
42098;SDS011;27758;55.900;8.516;2023-01-10T09:59:46;9.07;;;2.88;;
42098;SDS011;27758;55.900;8.516;2023-01-10T10:07:20;16.00;;;2.58;;
42098;SDS011;27758;55.900;8.516;2023-01-10T10:09:46;12.00;;;2.45;;
42098;SDS011;27758;55.900;8.516;2023-01-10T10:12:20;7.05;;;1.80;;
42098;SDS011;27758;55.900;8.516;2023-01-10T10:18:16;13.35;;;2.22;;
42098;SDS011;27758;55.900;8.516;2023-01-10T10:23:20;9.38;;;2.45;;
42098;SDS011;27758;55.900;8.516;2023-01-10T10:31:41;16.65;;;2.97;;
42098;SDS011;27758;55.900;8.516;2023-01-10T10:39:19;12.07;;;2.58;;
42098;SDS011;27758;55.900;8.516;2023-01-10T10:41:50;9.90;;;2.05;;
42098;SDS011;27758;55.900;8.516;2023-01-10T10:47:16;12.77;;;2.60;;
42098;SDS011;27758;55.900;8.516;2023-01-10T10:49:45;11.00;;;2.13;;
42098;SDS011;27758;55.900;8.516;2023-01-10T10:52:35;23.08;;;2.97;;
42098;SDS011;27758;55.900;8.516;2023-01-10T10:55:02;18.50;;;3.00;;
42098;SDS011;27758;55.900;8.516;2023-01-10T10:57:30;9.27;;;2.10;;
42098;SDS011;27758;55.900;8.516;2023-01-10T11:00:02;11.38;;;2.03;;
42098;SDS011;27758;55.900;8.516;2023-01-10T11:02:30;18.48;;;3.67;;
42098;SDS011;27758;55.900;8.516;2023-01-10T11:05:04;8.93;;;1.85;;
42098;SDS011;27758;55.900;8.516;2023-01-10T11:07:33;9.27;;;2.13;;
42098;SDS011;27758;55.900;8.516;2023-01-10T11:10:04;10.40;;;2.10;;
42098;SDS011;27758;55.900;8.516;2023-01-10T11:12:59;10.93;;;1.83;;
42098;SDS011;27758;55.900;8.516;2023-01-10T11:15:38;15.40;;;2.47;;
42098;SDS011;27758;55.900;8.516;2023-01-10T11:18:11;9.20;;;2.03;;
42098;SDS011;27758;55.900;8.516;2023-01-10T11:20:39;9.85;;;1.85;;
42098;SDS011;27758;55.900;8.516;2023-01-10T11:23:27;8.65;;;1.60;;
42098;SDS011;27758;55.900;8.516;2023-01-10T11:25:59;11.35;;;1.83;;
42098;SDS011;27758;55.900;8.516;2023-01-10T11:28:27;11.50;;;2.38;;
42098;SDS011;27758;55.900;8.516;2023-01-10T11:33:21;10.75;;;2.25;;
42098;SDS011;27758;55.900;8.516;2023-01-10T11:38:24;13.23;;;1.98;;
42098;SDS011;27758;55.900;8.516;2023-01-10T11:46:11;11.00;;;2.47;;
42098;SDS011;27758;55.900;8.516;2023-01-10T11:48:42;12.05;;;1.83;;
42098;SDS011;27758;55.900;8.516;2023-01-10T11:51:16;9.60;;;2.50;;
42098;SDS011;27758;55.900;8.516;2023-01-10T11:53:54;9.07;;;2.03;;
42098;SDS011;27758;55.900;8.516;2023-01-10T11:56:53;15.05;;;1.75;;
42098;SDS011;27758;55.900;8.516;2023-01-10T11:59:20;6.68;;;1.73;;
42098;SDS011;27758;55.900;8.516;2023-01-10T12:04:30;13.88;;;2.13;;
42098;SDS011;27758;55.900;8.516;2023-01-10T12:07:00;13.57;;;2.70;;
42098;SDS011;27758;55.900;8.516;2023-01-10T12:12:04;13.48;;;2.60;;
42098;SDS011;27758;55.900;8.516;2023-01-10T12:14:41;11.90;;;2.00;;
42098;SDS011;27758;55.900;8.516;2023-01-10T12:17:09;12.02;;;1.90;;
42098;SDS011;27758;55.900;8.516;2023-01-10T12:19:42;19.75;;;2.97;;
42098;SDS011;27758;55.900;8.516;2023-01-10T12:22:08;10.13;;;1.88;;
42098;SDS011;27758;55.900;8.516;2023-01-10T12:24:38;13.20;;;2.70;;
42098;SDS011;27758;55.900;8.516;2023-01-10T12:27:10;15.18;;;2.85;;
42098;SDS011;27758;55.900;8.516;2023-01-10T12:29:39;11.52;;;2.25;;
42098;SDS011;27758;55.900;8.516;2023-01-10T12:32:15;13.57;;;2.63;;
42098;SDS011;27758;55.900;8.516;2023-01-10T12:34:46;17.17;;;2.97;;
42098;SDS011;27758;55.900;8.516;2023-01-10T12:37:33;18.52;;;3.42;;
42098;SDS011;27758;55.900;8.516;2023-01-10T12:46:22;11.82;;;3.03;;
42098;SDS011;27758;55.900;8.516;2023-01-10T12:48:57;18.00;;;3.17;;
42098;SDS011;27758;55.900;8.516;2023-01-10T12:51:43;14.93;;;2.60;;
42098;SDS011;27758;55.900;8.516;2023-01-10T12:54:14;18.35;;;2.90;;
42098;SDS011;27758;55.900;8.516;2023-01-10T12:56:46;14.23;;;2.78;;
42098;SDS011;27758;55.900;8.516;2023-01-10T12:59:15;21.30;;;3.80;;
42098;SDS011;27758;55.900;8.516;2023-01-10T13:01:44;13.90;;;2.85;;
42098;SDS011;27758;55.900;8.516;2023-01-10T13:04:19;11.95;;;2.20;;
42098;SDS011;27758;55.900;8.516;2023-01-10T13:06:47;15.75;;;3.03;;
42098;SDS011;27758;55.900;8.516;2023-01-10T13:09:16;10.68;;;1.98;;
42098;SDS011;27758;55.900;8.516;2023-01-10T13:11:49;15.52;;;2.95;;
42098;SDS011;27758;55.900;8.516;2023-01-10T13:14:33;28.98;;;3.70;;
42098;SDS011;27758;55.900;8.516;2023-01-10T13:17:15;20.77;;;4.00;;
42098;SDS011;27758;55.900;8.516;2023-01-10T13:22:48;19.40;;;2.40;;
42098;SDS011;27758;55.900;8.516;2023-01-10T13:27:54;13.48;;;2.75;;
42098;SDS011;27758;55.900;8.516;2023-01-10T13:33:04;13.65;;;3.17;;
42098;SDS011;27758;55.900;8.516;2023-01-10T13:35:38;20.05;;;3.65;;
42098;SDS011;27758;55.900;8.516;2023-01-10T13:38:15;18.40;;;4.28;;
42098;SDS011;27758;55.900;8.516;2023-01-10T13:40:58;11.02;;;2.53;;
42098;SDS011;27758;55.900;8.516;2023-01-10T13:49:20;22.77;;;4.22;;
42098;SDS011;27758;55.900;8.516;2023-01-10T13:51:34;19.58;;;2.92;;
42098;SDS011;27758;55.900;8.516;2023-01-10T13:56:49;19.35;;;2.95;;
42098;SDS011;27758;55.900;8.516;2023-01-10T14:04:56;16.13;;;2.97;;
42098;SDS011;27758;55.900;8.516;2023-01-10T14:12:58;18.65;;;3.20;;
42098;SDS011;27758;55.900;8.516;2023-01-10T14:15:40;15.23;;;2.97;;
42098;SDS011;27758;55.900;8.516;2023-01-10T14:18:28;18.48;;;3.10;;
42098;SDS011;27758;55.900;8.516;2023-01-10T14:26:05;23.13;;;4.75;;
42098;SDS011;27758;55.900;8.516;2023-01-10T14:28:40;23.67;;;3.33;;
42098;SDS011;27758;55.900;8.516;2023-01-10T14:31:07;21.40;;;3.38;;
42098;SDS011;27758;55.900;8.516;2023-01-10T14:33:40;24.13;;;2.88;;
42098;SDS011;27758;55.900;8.516;2023-01-10T14:39:06;11.45;;;2.78;;
42098;SDS011;27758;55.900;8.516;2023-01-10T14:41:38;22.00;;;4.05;;
42098;SDS011;27758;55.900;8.516;2023-01-10T14:44:18;23.30;;;4.05;;
42098;SDS011;27758;55.900;8.516;2023-01-10T14:47:04;24.85;;;4.38;;
42098;SDS011;27758;55.900;8.516;2023-01-10T14:49:49;19.88;;;4.07;;
42098;SDS011;27758;55.900;8.516;2023-01-10T14:52:16;24.80;;;3.28;;
42098;SDS011;27758;55.900;8.516;2023-01-10T14:54:46;19.20;;;4.43;;
42098;SDS011;27758;55.900;8.516;2023-01-10T14:57:21;21.48;;;3.70;;
42098;SDS011;27758;55.900;8.516;2023-01-10T14:59:48;20.08;;;3.58;;
42098;SDS011;27758;55.900;8.516;2023-01-10T15:02:22;18.50;;;3.75;;
42098;SDS011;27758;55.900;8.516;2023-01-10T15:07:18;33.22;;;4.68;;
42098;SDS011;27758;55.900;8.516;2023-01-10T15:09:50;16.05;;;3.72;;
42098;SDS011;27758;55.900;8.516;2023-01-10T15:12:18;23.42;;;4.80;;
42098;SDS011;27758;55.900;8.516;2023-01-10T15:14:47;26.23;;;4.97;;
42098;SDS011;27758;55.900;8.516;2023-01-10T15:17:15;21.80;;;3.63;;
42098;SDS011;27758;55.900;8.516;2023-01-10T15:19:47;26.25;;;5.15;;
42098;SDS011;27758;55.900;8.516;2023-01-10T15:22:36;33.47;;;5.22;;
42098;SDS011;27758;55.900;8.516;2023-01-10T15:25:05;25.20;;;5.13;;
42098;SDS011;27758;55.900;8.516;2023-01-10T15:27:51;20.08;;;4.45;;
42098;SDS011;27758;55.900;8.516;2023-01-10T15:30:20;27.10;;;4.45;;
42098;SDS011;27758;55.900;8.516;2023-01-10T15:32:55;30.48;;;5.25;;
42098;SDS011;27758;55.900;8.516;2023-01-10T15:35:27;40.22;;;5.03;;
42098;SDS011;27758;55.900;8.516;2023-01-10T15:37:55;28.80;;;4.80;;
42098;SDS011;27758;55.900;8.516;2023-01-10T15:40:33;21.98;;;4.28;;
42098;SDS011;27758;55.900;8.516;2023-01-10T15:45:42;34.95;;;5.78;;
42098;SDS011;27758;55.900;8.516;2023-01-10T15:50:54;39.00;;;5.47;;
42098;SDS011;27758;55.900;8.516;2023-01-10T15:53:54;20.83;;;4.07;;
42098;SDS011;27758;55.900;8.516;2023-01-10T15:56:28;28.10;;;5.72;;
42098;SDS011;27758;55.900;8.516;2023-01-10T15:59:02;33.58;;;4.13;;
42098;SDS011;27758;55.900;8.516;2023-01-10T16:01:30;31.98;;;5.00;;
42098;SDS011;27758;55.900;8.516;2023-01-10T16:04:01;30.40;;;4.97;;
42098;SDS011;27758;55.900;8.516;2023-01-10T16:06:30;30.63;;;5.88;;
42098;SDS011;27758;55.900;8.516;2023-01-10T16:08:58;30.58;;;5.00;;
42098;SDS011;27758;55.900;8.516;2023-01-10T16:11:46;18.00;;;4.38;;
42098;SDS011;27758;55.900;8.516;2023-01-10T16:14:36;35.88;;;6.70;;
42098;SDS011;27758;55.900;8.516;2023-01-10T16:17:03;26.75;;;5.20;;
42098;SDS011;27758;55.900;8.516;2023-01-10T16:19:29;32.65;;;5.30;;
42098;SDS011;27758;55.900;8.516;2023-01-10T16:21:56;38.97;;;5.88;;
42098;SDS011;27758;55.900;8.516;2023-01-10T16:24:24;33.30;;;5.65;;
42098;SDS011;27758;55.900;8.516;2023-01-10T16:29:20;30.15;;;7.35;;
42098;SDS011;27758;55.900;8.516;2023-01-10T16:31:47;34.28;;;6.40;;
42098;SDS011;27758;55.900;8.516;2023-01-10T16:34:13;34.80;;;7.07;;
42098;SDS011;27758;55.900;8.516;2023-01-10T16:36:39;23.90;;;6.82;;
42098;SDS011;27758;55.900;8.516;2023-01-10T16:39:10;36.05;;;7.03;;
42098;SDS011;27758;55.900;8.516;2023-01-10T16:41:40;32.33;;;7.32;;
42098;SDS011;27758;55.900;8.516;2023-01-10T16:44:25;35.38;;;6.03;;
42098;SDS011;27758;55.900;8.516;2023-01-10T16:46:51;27.63;;;6.78;;
42098;SDS011;27758;55.900;8.516;2023-01-10T16:49:18;38.55;;;7.57;;
42098;SDS011;27758;55.900;8.516;2023-01-10T16:51:44;31.73;;;7.55;;
42098;SDS011;27758;55.900;8.516;2023-01-10T16:54:14;42.58;;;7.20;;
42098;SDS011;27758;55.900;8.516;2023-01-10T16:56:41;39.40;;;8.27;;
42098;SDS011;27758;55.900;8.516;2023-01-10T16:59:09;37.95;;;6.75;;
42098;SDS011;27758;55.900;8.516;2023-01-10T17:01:40;30.20;;;7.05;;
42098;SDS011;27758;55.900;8.516;2023-01-10T17:04:11;35.72;;;7.95;;
42098;SDS011;27758;55.900;8.516;2023-01-10T17:06:39;40.58;;;7.70;;
42098;SDS011;27758;55.900;8.516;2023-01-10T17:09:06;41.95;;;8.77;;
42098;SDS011;27758;55.900;8.516;2023-01-10T17:11:35;31.83;;;9.40;;
42098;SDS011;27758;55.900;8.516;2023-01-10T17:14:04;37.20;;;8.38;;
42098;SDS011;27758;55.900;8.516;2023-01-10T17:16:30;36.88;;;6.85;;
42098;SDS011;27758;55.900;8.516;2023-01-10T17:18:56;41.63;;;8.13;;
42098;SDS011;27758;55.900;8.516;2023-01-10T17:21:22;47.50;;;8.07;;